Time;durP1;ratioP1;P1;durP2;ratioP2;P2;SDS_P1;SDS_P2;PMS_P1;PMS_P2;Temp;Humidity;BMP_temperature;BMP_pressure;BME280_temperature;BME280_humidity;BME280_pressure;Samples;Min_cycle;Max_cycle;Signal;HPM_P1;HPM_P2
2023/01/23 00:01:38;;;;;;;;;;;;;;;;;;5075763;28;19912;-81
2023/01/23 00:04:04;;;;;;;;;;;;;;;;;;5064141;28;19904;-81
2023/01/23 00:06:29;;;;;;;;;;;;;;;;;;5080077;28;20269;-81
2023/01/23 00:08:55;;;;;;;;;;;;;;;;;;5082165;28;20569;-81
2023/01/23 00:11:24;;;;;;;;;;;;;;;;;;5066720;28;19943;-81
2023/01/23 00:13:55;;;;;;;;;;;;;;;;;;5062569;28;19991;-81
2023/01/23 00:16:21;;;;;;;;;;;;;;;;;;5062533;28;19905;-81
2023/01/23 00:18:47;;;;;;;;;;;;;;;;;;5062857;28;19912;-81
2023/01/23 00:21:13;;;;;;;;;;;;;;;;;;5067802;28;19904;-81
2023/01/23 00:23:39;;;;;;;;;;;;;;;;;;5081885;28;19909;-81
2023/01/23 00:26:05;;;;;;;;;;;;;;;;;;5081629;28;20344;-81
2023/01/23 00:28:31;;;;;;;;;;;;;;;;;;5081249;28;19917;-81
2023/01/23 00:30:57;;;;;;;;;;;;;;;;;;5068955;28;20247;-81
2023/01/23 00:33:22;;;;;;;;;;;;;;;;;;5081627;28;19905;-81
2023/01/23 00:35:48;;;;;;;;;;;;;;;;;;5076819;28;20679;-81
2023/01/23 00:38:14;;;;;;;;;;;;;;;;;;5061164;28;19905;-82
2023/01/23 00:40:40;;;;;;;;;;;;;;;;;;5079101;28;19904;-82
2023/01/23 00:43:06;;;;;;;;;;;;;;;;;;5070279;28;19905;-82
2023/01/23 00:45:32;;;;;;;;;;;;;;;;;;5065824;28;19951;-82
2023/01/23 00:47:58;;;;;;;;;;;;;;;;;;5069486;28;19908;-81
2023/01/23 00:50:24;;;;;;;;;;;;;;;;;;5077918;28;19908;-81
2023/01/23 00:52:50;;;;;;;;;;;;;;;;;;5080371;28;19932;-81
2023/01/23 00:55:18;;;;;;;;;;;;;;;;;;5078886;28;19911;-82
2023/01/23 00:57:44;;;;;;;;;;;;;;;;;;5069082;28;19909;-82
2023/01/23 01:00:10;;;;;;;;;;;;;;;;;;5078749;28;19995;-82
2023/01/23 01:02:36;;;;;;;;;;;;;;;;;;5080019;28;19951;-82
2023/01/23 01:05:01;;;;;;;;;;;;;;;;;;5063534;28;19953;-81
2023/01/23 01:07:27;;;;;;;;;;;;;;;;;;5072042;28;19904;-81
2023/01/23 01:09:54;;;;;;;;;;;;;;;;;;5080164;28;19915;-81
2023/01/23 01:12:19;;;;;;;;;;;;;;;;;;5061626;28;19908;-81
2023/01/23 01:14:46;;;;;;;;;;;;;;;;;;5080331;28;19966;-81
2023/01/23 01:17:11;;;;;;;;;;;;;;;;;;5080079;28;19908;-82
2023/01/23 01:19:37;;;;;;;;;;;;;;;;;;5073316;28;20419;-81
2023/01/23 01:22:03;;;;;;;;;;;;;;;;;;5060202;28;20281;-81
2023/01/23 01:24:29;;;;;;;;;;;;;;;;;;5079288;28;19930;-81
2023/01/23 01:26:55;;;;;;;;;;;;;;;;;;5078056;28;20565;-82
2023/01/23 01:29:21;;;;;;;;;;;;;;;;;;5075670;28;19924;-82
2023/01/23 01:31:47;;;;;;;;;;;;;;;;;;5059184;28;20255;-82
2023/01/23 01:34:13;;;;;;;;;;;;;;;;;;5066036;28;19904;-82
2023/01/23 01:36:38;;;;;;;;;;;;;;;;;;5079092;28;20300;-82
2023/01/23 01:39:11;;;;;;;;;;;;;;;;;;5079002;28;19910;-82
2023/01/23 01:41:37;;;;;;;;;;;;;;;;;;5071729;28;20480;-82
2023/01/23 01:44:02;;;;;;;;;;;;;;;;;;5058275;28;19909;-82
2023/01/23 01:46:28;;;;;;;;;;;;;;;;;;5070328;28;20313;-81
2023/01/23 01:48:54;;;;;;;;;;;;;;;;;;5058228;28;19963;-81
2023/01/23 01:51:20;;;;;;;;;;;;;;;;;;5076155;28;19905;-81
2023/01/23 01:53:46;;;;;;;;;;;;;;;;;;5078538;28;19904;-81
2023/01/23 01:56:12;;;;;;;;;;;;;;;;;;5078819;28;19954;-81
2023/01/23 01:58:38;;;;;;;;;;;;;;;;;;5078968;28;19905;-81
2023/01/23 02:01:04;;;;;;;;;;;;;;;;;;5060469;28;19904;-81
2023/01/23 02:03:30;;;;;;;;;;;;;;;;;;5067852;28;20029;-81
2023/01/23 02:05:56;;;;;;;;;;;;;;;;;;5075657;28;20022;-81
2023/01/23 02:08:21;;;;;;;;;;;;;;;;;;5077631;28;19976;-81
2023/01/23 02:10:47;;;;;;;;;;;;;;;;;;5077171;28;19985;-81
2023/01/23 02:13:13;;;;;;;;;;;;;;;;;;5077208;28;19904;-81
2023/01/23 02:15:39;;;;;;;;;;;;;;;;;;5071471;28;19909;-82
2023/01/23 02:18:05;;;;;;;;;;;;;;;;;;5066568;28;19959;-81
2023/01/23 02:20:36;;;;;;;;;;;;;;;;;;5076653;28;20254;-81
2023/01/23 02:25:32;;;;;;;;;;;;;;;;;;5073361;28;19908;-81
2023/01/23 02:27:58;;;;;;;;;;;;;;;;;;5057263;28;19978;-81
2023/01/23 02:30:24;;;;;;;;;;;;;;;;;;5056570;28;19905;-81
2023/01/23 02:32:50;;;;;;;;;;;;;;;;;;5049571;28;19919;-81
2023/01/23 02:35:16;;;;;;;;;;;;;;;;;;5076724;28;19909;-81
2023/01/23 02:37:41;;;;;;;;;;;;;;;;;;5078852;28;20285;-81
2023/01/23 02:40:07;;;;;;;;;;;;;;;;;;5080201;28;19904;-81
2023/01/23 02:42:33;;;;;;;;;;;;;;;;;;5080122;28;19905;-81
2023/01/23 02:44:59;;;;;;;;;;;;;;;;;;5080639;28;19908;-81
2023/01/23 02:47:25;;;;;;;;;;;;;;;;;;5061544;28;19909;-81
2023/01/23 02:49:51;;;;;;;;;;;;;;;;;;5079993;28;20462;-81
2023/01/23 02:52:17;;;;;;;;;;;;;;;;;;5080711;28;19912;-81
2023/01/23 02:54:43;;;;;;;;;;;;;;;;;;5062718;28;20281;-82
2023/01/23 02:57:09;;;;;;;;;;;;;;;;;;5060537;28;20129;-81
2023/01/23 03:02:19;;;;;;;;;;;;;;;;;;5072860;28;19989;-81
2023/01/23 03:04:45;;;;;;;;;;;;;;;;;;5056401;28;19904;-81
2023/01/23 03:07:11;;;;;;;;;;;;;;;;;;5088686;28;19930;-82
2023/01/23 03:09:38;;;;;;;;;;;;;;;;;;5070249;28;20368;-82
2023/01/23 03:12:04;;;;;;;;;;;;;;;;;;5070398;28;20365;-81
2023/01/23 03:14:31;;;;;;;;;;;;;;;;;;5089004;28;20031;-81
2023/01/23 03:16:57;;;;;;;;;;;;;;;;;;5089069;28;19911;-81
2023/01/23 03:19:23;;;;;;;;;;;;;;;;;;5089069;28;20359;-81
2023/01/23 03:21:49;;;;;;;;;;;;;;;;;;5074660;28;19904;-81
2023/01/23 03:24:15;;;;;;;;;;;;;;;;;;5075998;28;19912;-81
2023/01/23 03:26:41;;;;;;;;;;;;;;;;;;5074692;28;20001;-82
2023/01/23 03:31:51;;;;;;;;;;;;;;;;;;5084731;28;19911;-81
2023/01/23 03:34:17;;;;;;;;;;;;;;;;;;5078018;28;19935;-81
2023/01/23 03:36:43;;;;;;;;;;;;;;;;;;5070634;28;20520;-82
2023/01/23 03:41:54;;;;;;;;;;;;;;;;;;5079777;28;19926;-82
2023/01/23 03:44:20;;;;;;;;;;;;;;;;;;5066359;28;20003;-82
2023/01/23 03:46:46;;;;;;;;;;;;;;;;;;5084989;28;19905;-82
2023/01/23 03:49:12;;;;;;;;;;;;;;;;;;5072581;28;19912;-82
2023/01/23 03:51:38;;;;;;;;;;;;;;;;;;5085126;28;19908;-82
2023/01/23 03:54:04;;;;;;;;;;;;;;;;;;5085872;28;19911;-82
2023/01/23 03:56:30;;;;;;;;;;;;;;;;;;5083457;28;19908;-81
2023/01/23 03:58:56;;;;;;;;;;;;;;;;;;5083843;28;19904;-81
2023/01/23 04:01:22;;;;;;;;;;;;;;;;;;5086324;28;19911;-81
2023/01/23 04:03:48;;;;;;;;;;;;;;;;;;5087002;28;19905;-81
2023/01/23 04:06:14;;;;;;;;;;;;;;;;;;5066466;28;19927;-81
2023/01/23 04:08:40;;;;;;;;;;;;;;;;;;5079581;28;19917;-81
2023/01/23 04:11:06;;;;;;;;;;;;;;;;;;5085877;28;19904;-82
2023/01/23 04:13:32;;;;;;;;;;;;;;;;;;5085054;28;19904;-82
2023/01/23 04:15:58;;;;;;;;;;;;;;;;;;5065811;28;19958;-82
2023/01/23 04:18:24;;;;;;;;;;;;;;;;;;5077718;28;20350;-82
2023/01/23 04:20:49;;;;;;;;;;;;;;;;;;5085027;28;19908;-81
2023/01/23 04:23:15;;;;;;;;;;;;;;;;;;5084585;28;19908;-81
2023/01/23 04:25:41;;;;;;;;;;;;;;;;;;5051908;28;19912;-81
2023/01/23 04:28:07;;;;;;;;;;;;;;;;;;5061679;28;19917;-81
2023/01/23 04:30:33;;;;;;;;;;;;;;;;;;5043296;28;20350;-81
2023/01/23 04:32:59;;;;;;;;;;;;;;;;;;5043983;28;20003;-81
2023/01/23 04:35:25;;;;;;;;;;;;;;;;;;5049886;28;19912;-81
2023/01/23 04:37:51;;;;;;;;;;;;;;;;;;5060179;28;19905;-82
2023/01/23 04:40:17;;;;;;;;;;;;;;;;;;5061775;28;19905;-81
2023/01/23 04:42:43;;;;;;;;;;;;;;;;;;5059738;28;19913;-81
2023/01/23 04:45:09;;;;;;;;;;;;;;;;;;5044227;28;19905;-81
2023/01/23 04:47:35;;;;;;;;;;;;;;;;;;5052573;28;19987;-81
2023/01/23 04:50:01;;;;;;;;;;;;;;;;;;5048422;28;20432;-81
2023/01/23 04:52:26;;;;;;;;;;;;;;;;;;5062347;28;19905;-81
2023/01/23 04:54:52;;;;;;;;;;;;;;;;;;5049359;28;19956;-81
2023/01/23 04:57:18;;;;;;;;;;;;;;;;;;5062734;28;20376;-82
2023/01/23 04:59:44;;;;;;;;;;;;;;;;;;5047530;28;19905;-82
2023/01/23 05:02:10;;;;;;;;;;;;;;;;;;5051383;28;19908;-82
2023/01/23 05:04:36;;;;;;;;;;;;;;;;;;5047716;28;20003;-82
2023/01/23 05:07:02;;;;;;;;;;;;;;;;;;5063059;28;19904;-81
2023/01/23 05:09:27;;;;;;;;;;;;;;;;;;5061942;28;19909;-81
2023/01/23 05:11:53;;;;;;;;;;;;;;;;;;5060486;28;20377;-81
2023/01/23 05:14:21;;;;;;;;;;;;;;;;;;5055445;28;19913;-81
2023/01/23 05:16:48;;;;;;;;;;;;;;;;;;5041147;28;19905;-81
2023/01/23 05:19:13;;;;;;;;;;;;;;;;;;5061121;28;19912;-81
2023/01/23 05:21:39;;;;;;;;;;;;;;;;;;5062881;28;19966;-81
2023/01/23 05:24:05;;;;;;;;;;;;;;;;;;5056161;28;19932;-81
2023/01/23 05:26:31;;;;;;;;;;;;;;;;;;5051470;28;20365;-82
2023/01/23 05:28:57;;;;;;;;;;;;;;;;;;5070807;28;20057;-81
2023/01/23 05:31:23;;;;;;;;;;;;;;;;;;5061465;28;20365;-81
2023/01/23 05:33:49;;;;;;;;;;;;;;;;;;5067941;28;19909;-81
2023/01/23 05:36:15;;;;;;;;;;;;;;;;;;5071747;28;19927;-81
2023/01/23 05:38:41;;;;;;;;;;;;;;;;;;5080123;28;19911;-82
2023/01/23 05:41:07;;;;;;;;;;;;;;;;;;5063939;28;19971;-81
2023/01/23 05:43:33;;;;;;;;;;;;;;;;;;5064749;28;19904;-81
2023/01/23 05:45:59;;;;;;;;;;;;;;;;;;5061373;28;19946;-81
2023/01/23 05:48:25;;;;;;;;;;;;;;;;;;5064570;28;19920;-81
2023/01/23 05:50:51;;;;;;;;;;;;;;;;;;5062493;28;20471;-81
2023/01/23 05:53:17;;;;;;;;;;;;;;;;;;5075143;28;19904;-81
2023/01/23 05:55:43;;;;;;;;;;;;;;;;;;5078402;28;21065;-81
2023/01/23 05:58:09;;;;;;;;;;;;;;;;;;5075549;28;19943;-81
2023/01/23 06:00:35;;;;;;;;;;;;;;;;;;5064493;28;19961;-82
2023/01/23 06:03:00;;;;;;;;;;;;;;;;;;5054853;28;19909;-81
2023/01/23 06:05:26;;;;;;;;;;;;;;;;;;5072059;28;20266;-82
2023/01/23 06:07:52;;;;;;;;;;;;;;;;;;5064426;28;19913;-82
2023/01/23 06:10:18;;;;;;;;;;;;;;;;;;5077342;28;20424;-82
2023/01/23 06:12:44;;;;;;;;;;;;;;;;;;5076378;28;20258;-82
2023/01/23 06:15:10;;;;;;;;;;;;;;;;;;5077487;28;19999;-82
2023/01/23 06:17:36;;;;;;;;;;;;;;;;;;5071673;28;19927;-82
2023/01/23 06:20:02;;;;;;;;;;;;;;;;;;5057725;28;19931;-82
2023/01/23 06:22:28;;;;;;;;;;;;;;;;;;5076656;28;19904;-81
2023/01/23 06:24:54;;;;;;;;;;;;;;;;;;5077349;28;20011;-81
2023/01/23 06:27:20;;;;;;;;;;;;;;;;;;5070359;28;19988;-81
2023/01/23 06:29:46;;;;;;;;;;;;;;;;;;5072448;28;19916;-81
2023/01/23 06:32:12;;;;;;;;;;;;;;;;;;5058010;28;19944;-82
2023/01/23 06:34:38;;;;;;;;;;;;;;;;;;5070477;28;19905;-82
2023/01/23 06:37:04;;;;;;;;;;;;;;;;;;5058341;28;19928;-82
2023/01/23 06:39:30;;;;;;;;;;;;;;;;;;5057563;28;19913;-82
2023/01/23 06:41:56;;;;;;;;;;;;;;;;;;5070252;28;19916;-82
2023/01/23 06:44:26;;;;;;;;;;;;;;;;;;5055957;28;19912;-82
2023/01/23 06:46:52;;;;;;;;;;;;;;;;;;5076890;28;19908;-81
2023/01/23 06:49:18;;;;;;;;;;;;;;;;;;5072821;28;19919;-82
2023/01/23 06:51:43;;;;;;;;;;;;;;;;;;5060932;28;19905;-81
2023/01/23 06:54:09;;;;;;;;;;;;;;;;;;5075154;28;19912;-82
2023/01/23 06:56:35;;;;;;;;;;;;;;;;;;5066503;28;19911;-81
2023/01/23 06:59:01;;;;;;;;;;;;;;;;;;5067043;28;20250;-82
2023/01/23 07:01:27;;;;;;;;;;;;;;;;;;5051029;28;20308;-81
2023/01/23 07:03:53;;;;;;;;;;;;;;;;;;5078099;28;19904;-81
2023/01/23 07:06:19;;;;;;;;;;;;;;;;;;5078342;28;19904;-81
2023/01/23 07:08:45;;;;;;;;;;;;;;;;;;5065325;28;19924;-81
2023/01/23 07:11:11;;;;;;;;;;;;;;;;;;5072005;28;19904;-81
2023/01/23 07:13:37;;;;;;;;;;;;;;;;;;5074782;28;19944;-81
2023/01/23 07:16:03;;;;;;;;;;;;;;;;;;5074748;28;19958;-81
2023/01/23 07:18:31;;;;;;;;;;;;;;;;;;5073640;28;19905;-81
2023/01/23 07:20:57;;;;;;;;;;;;;;;;;;5073692;28;19912;-81
2023/01/23 07:23:23;;;;;;;;;;;;;;;;;;5074367;28;19904;-81
2023/01/23 07:25:57;;;;;;;;;;;;;;;;;;5077784;28;20308;-81
2023/01/23 07:28:25;;;;;;;;;;;;;;;;;;5070450;28;19916;-82
2023/01/23 07:30:50;;;;;;;;;;;;;;;;;;5077070;28;19920;-82
2023/01/23 07:33:16;;;;;;;;;;;;;;;;;;5077720;28;19950;-81
2023/01/23 07:35:42;;;;;;;;;;;;;;;;;;5077102;28;19904;-81
2023/01/23 07:38:08;;;;;;;;;;;;;;;;;;5058879;28;19904;-81
2023/01/23 07:40:37;;;;;;;;;;;;;;;;;;5059144;28;20004;-81
2023/01/23 07:43:03;;;;;;;;;;;;;;;;;;5075753;28;20046;-81
2023/01/23 07:45:29;;;;;;;;;;;;;;;;;;5057461;28;19952;-81
2023/01/23 07:47:55;;;;;;;;;;;;;;;;;;5072962;28;20609;-81
2023/01/23 07:50:21;;;;;;;;;;;;;;;;;;5080953;28;19913;-81
2023/01/23 07:52:47;;;;;;;;;;;;;;;;;;5058658;28;20354;-81
2023/01/23 07:55:12;;;;;;;;;;;;;;;;;;5076591;28;20003;-81
2023/01/23 07:57:38;;;;;;;;;;;;;;;;;;5076159;28;20435;-81
2023/01/23 08:00:04;;;;;;;;;;;;;;;;;;5076340;28;19904;-81
2023/01/23 08:02:30;;;;;;;;;;;;;;;;;;5076378;28;20277;-81
2023/01/23 08:04:56;;;;;;;;;;;;;;;;;;5075940;28;19958;-82
2023/01/23 08:10:11;;;;;;;;;;;;;;;;;;5067492;28;19961;-82
2023/01/23 08:12:37;;;;;;;;;;;;;;;;;;5061436;28;19915;-82
2023/01/23 08:15:03;;;;;;;;;;;;;;;;;;5064328;28;19991;-82
2023/01/23 08:17:29;;;;;;;;;;;;;;;;;;5067809;28;19931;-82
2023/01/23 08:19:55;;;;;;;;;;;;;;;;;;5068038;28;19915;-82
2023/01/23 08:22:20;;;;;;;;;;;;;;;;;;5075981;28;20390;-82
2023/01/23 08:24:47;;;;;;;;;;;;;;;;;;5076064;28;20592;-81
2023/01/23 08:27:13;;;;;;;;;;;;;;;;;;5075579;28;19910;-82
2023/01/23 08:29:39;;;;;;;;;;;;;;;;;;5075171;28;20098;-82
2023/01/23 08:32:04;;;;;;;;;;;;;;;;;;5072295;28;20019;-82
2023/01/23 08:34:30;;;;;;;;;;;;;;;;;;5070937;28;19915;-82
2023/01/23 08:36:56;;;;;;;;;;;;;;;;;;5074212;28;20255;-82
2023/01/23 08:39:23;;;;;;;;;;;;;;;;;;5071887;28;19912;-82
2023/01/23 08:41:49;;;;;;;;;;;;;;;;;;5071092;28;19904;-82
2023/01/23 08:44:15;;;;;;;;;;;;;;;;;;5072566;28;19950;-81
2023/01/23 08:46:41;;;;;;;;;;;;;;;;;;5053536;28;20498;-81
2023/01/23 08:49:08;;;;;;;;;;;;;;;;;;5071517;28;19909;-81
2023/01/23 08:51:36;;;;;;;;;;;;;;;;;;5074178;28;20262;-81
2023/01/23 08:54:05;;;;;;;;;;;;;;;;;;5073890;28;20016;-82
2023/01/23 08:56:31;;;;;;;;;;;;;;;;;;5070087;28;19908;-82
2023/01/23 08:58:57;;;;;;;;;;;;;;;;;;5049579;28;19912;-81
2023/01/23 09:01:23;;;;;;;;;;;;;;;;;;5070795;28;19912;-81
2023/01/23 09:03:49;;;;;;;;;;;;;;;;;;5070503;28;19936;-82
2023/01/23 09:06:15;;;;;;;;;;;;;;;;;;5068813;28;19908;-82
2023/01/23 09:08:41;;;;;;;;;;;;;;;;;;5066164;28;19917;-83
2023/01/23 09:11:06;;;;;;;;;;;;;;;;;;5036207;28;19904;-82
2023/01/23 09:13:32;;;;;;;;;;;;;;;;;;5053574;28;19916;-82
2023/01/23 09:15:58;;;;;;;;;;;;;;;;;;5054363;28;20366;-83
2023/01/23 09:18:24;;;;;;;;;;;;;;;;;;5055743;28;19905;-83
2023/01/23 09:20:50;;;;;;;;;;;;;;;;;;5041289;28;19904;-82
2023/01/23 09:23:16;;;;;;;;;;;;;;;;;;5076950;28;19905;-83
2023/01/23 09:25:42;;;;;;;;;;;;;;;;;;5073898;28;19909;-83
2023/01/23 09:28:08;;;;;;;;;;;;;;;;;;5074348;28;19917;-83
2023/01/23 09:30:34;;;;;;;;;;;;;;;;;;5053722;28;19966;-83
2023/01/23 09:33:00;;;;;;;;;;;;;;;;;;5055732;28;19912;-83
2023/01/23 09:35:27;;;;;;;;;;;;;;;;;;5054833;28;19946;-83
2023/01/23 09:47:01;;;;;;;;;;;;;;;;;;5039849;28;19978;-83
2023/01/23 09:49:27;;;;;;;;;;;;;;;;;;5033499;28;19913;-82
2023/01/23 09:51:53;;;;;;;;;;;;;;;;;;5034450;28;19916;-82
2023/01/23 09:54:19;;;;;;;;;;;;;;;;;;5039714;28;19905;-82
2023/01/23 09:56:44;;;;;;;;;;;;;;;;;;5055129;28;19963;-83
2023/01/23 09:59:10;;;;;;;;;;;;;;;;;;5054698;28;19908;-83
2023/01/23 10:01:36;;;;;;;;;;;;;;;;;;5056370;28;19962;-83
2023/01/23 10:04:02;;;;;;;;;;;;;;;;;;5052500;28;19916;-83
2023/01/23 10:06:28;;;;;;;;;;;;;;;;;;5036667;28;19995;-82
2023/01/23 10:08:54;;;;;;;;;;;;;;;;;;5035484;28;19909;-83
2023/01/23 10:11:20;;;;;;;;;;;;;;;;;;5046078;28;19912;-82
2023/01/23 10:13:47;;;;;;;;;;;;;;;;;;5054081;28;19959;-82
2023/01/23 10:16:13;;;;;;;;;;;;;;;;;;5054400;28;20332;-82
2023/01/23 10:32:22;;;;;;;;;;;;;;;;;;5071169;28;20315;-83
2023/01/23 10:34:49;;;;;;;;;;;;;;;;;;5074554;28;19904;-83
2023/01/23 10:37:15;;;;;;;;;;;;;;;;;;5074430;28;19905;-83
2023/01/23 10:39:40;;;;;;;;;;;;;;;;;;5074088;28;19954;-83
2023/01/23 10:42:06;;;;;;;;;;;;;;;;;;5073865;28;19955;-83
2023/01/23 10:44:32;;;;;;;;;;;;;;;;;;5074115;28;19905;-83
2023/01/23 10:46:58;;;;;;;;;;;;;;;;;;5073646;28;19904;-83
2023/01/23 10:49:24;;;;;;;;;;;;;;;;;;5073164;28;19956;-83
2023/01/23 10:51:50;;;;;;;;;;;;;;;;;;5074329;28;19966;-83
2023/01/23 10:54:17;;;;;;;;;;;;;;;;;;5074066;28;19912;-83
2023/01/23 10:56:43;;;;;;;;;;;;;;;;;;5075385;28;19994;-83
2023/01/23 10:59:09;;;;;;;;;;;;;;;;;;5077570;28;20317;-83
2023/01/23 11:04:20;;;;;;;;;;;;;;;;;;5081189;28;19911;-83
2023/01/23 11:06:46;;;;;;;;;;;;;;;;;;5073753;28;19934;-83
2023/01/23 11:09:11;;;;;;;;;;;;;;;;;;5049416;28;19923;-83
2023/01/23 11:11:37;;;;;;;;;;;;;;;;;;5067408;28;20320;-83
2023/01/23 11:14:03;;;;;;;;;;;;;;;;;;5069974;28;19904;-83
2023/01/23 11:16:29;;;;;;;;;;;;;;;;;;5065775;28;20354;-83
2023/01/23 11:18:55;;;;;;;;;;;;;;;;;;5068535;28;19916;-83
2023/01/23 11:21:21;;;;;;;;;;;;;;;;;;5067500;28;19920;-83
2023/01/23 11:23:47;;;;;;;;;;;;;;;;;;5053322;28;19999;-83
2023/01/23 11:26:13;;;;;;;;;;;;;;;;;;5069768;28;19904;-83
2023/01/23 11:28:38;;;;;;;;;;;;;;;;;;5051435;28;19956;-83
2023/01/23 11:31:04;;;;;;;;;;;;;;;;;;5053486;28;19923;-83
2023/01/23 11:33:30;;;;;;;;;;;;;;;;;;5073403;28;19911;-83
2023/01/23 11:35:56;;;;;;;;;;;;;;;;;;5076834;28;19905;-83
2023/01/23 11:38:22;;;;;;;;;;;;;;;;;;5075031;28;19921;-83
2023/01/23 11:40:48;;;;;;;;;;;;;;;;;;5076850;28;19943;-83
2023/01/23 11:43:14;;;;;;;;;;;;;;;;;;5058661;28;20349;-83
2023/01/23 11:45:42;;;;;;;;;;;;;;;;;;5076504;28;19916;-83
2023/01/23 11:48:16;;;;;;;;;;;;;;;;;;5076123;28;19920;-83
2023/01/23 11:50:42;;;;;;;;;;;;;;;;;;5049690;28;19965;-83
2023/01/23 11:53:07;;;;;;;;;;;;;;;;;;5079817;28;19905;-83
2023/01/23 11:55:33;;;;;;;;;;;;;;;;;;5077023;28;19904;-83
2023/01/23 11:57:59;;;;;;;;;;;;;;;;;;5078884;28;19905;-83
2023/01/23 12:00:25;;;;;;;;;;;;;;;;;;5075280;28;19904;-83
2023/01/23 12:02:51;;;;;;;;;;;;;;;;;;5085902;28;19905;-83
2023/01/23 12:05:17;;;;;;;;;;;;;;;;;;5086844;28;20341;-83
2023/01/23 12:07:43;;;;;;;;;;;;;;;;;;5086997;28;19911;-83
2023/01/23 12:10:09;;;;;;;;;;;;;;;;;;5086353;28;19904;-83
2023/01/23 12:12:35;;;;;;;;;;;;;;;;;;5068155;28;19905;-83
2023/01/23 12:15:00;;;;;;;;;;;;;;;;;;5086674;28;19950;-83
2023/01/23 12:17:26;;;;;;;;;;;;;;;;;;5067501;28;19951;-83
2023/01/23 12:19:54;;;;;;;;;;;;;;;;;;5085252;28;20461;-83
2023/01/23 12:22:20;;;;;;;;;;;;;;;;;;5085198;28;19911;-82
2023/01/23 12:24:46;;;;;;;;;;;;;;;;;;5083905;28;19904;-82
2023/01/23 12:27:12;;;;;;;;;;;;;;;;;;5084906;28;19958;-83
2023/01/23 12:29:39;;;;;;;;;;;;;;;;;;5084210;28;19947;-83
2023/01/23 12:32:05;;;;;;;;;;;;;;;;;;5082128;28;19955;-83
2023/01/23 12:34:31;;;;;;;;;;;;;;;;;;5061974;28;19905;-83
2023/01/23 12:36:57;;;;;;;;;;;;;;;;;;5064024;28;19904;-83
2023/01/23 12:39:23;;;;;;;;;;;;;;;;;;5047358;28;20277;-83
2023/01/23 12:41:48;;;;;;;;;;;;;;;;;;5062905;28;20046;-83
2023/01/23 12:44:14;;;;;;;;;;;;;;;;;;5063196;28;20008;-83
2023/01/23 12:46:40;;;;;;;;;;;;;;;;;;5063625;28;19911;-83
2023/01/23 12:49:06;;;;;;;;;;;;;;;;;;5063416;28;19920;-83
2023/01/23 12:51:32;;;;;;;;;;;;;;;;;;5063504;28;20003;-83
2023/01/23 12:53:58;;;;;;;;;;;;;;;;;;5062628;28;19949;-83
2023/01/23 12:56:24;;;;;;;;;;;;;;;;;;5062200;28;19911;-83
2023/01/23 12:58:50;;;;;;;;;;;;;;;;;;5062205;28;19916;-83
2023/01/23 13:01:15;;;;;;;;;;;;;;;;;;5061292;28;19904;-83
2023/01/23 13:03:41;;;;;;;;;;;;;;;;;;5040856;28;20394;-83
2023/01/23 13:06:07;;;;;;;;;;;;;;;;;;5040719;28;19911;-83
2023/01/23 13:08:33;;;;;;;;;;;;;;;;;;5061024;28;19913;-83
2023/01/23 13:13:45;;;;;;;;;;;;;;;;;;5061627;28;20277;-83
2023/01/23 13:16:11;;;;;;;;;;;;;;;;;;5059971;28;19905;-83
2023/01/23 13:25:08;;;;;;;;;;;;;;;;;;5055697;28;19950;-83
2023/01/23 13:26:55;;;;;;;;;;;;;;;;;;5061324;28;19972;-83
2023/01/23 13:29:21;;;;;;;;;;;;;;;;;;5059096;28;20122;-83
2023/01/23 13:31:49;;;;;;;;;;;;;;;;;;5059070;28;19916;-83
2023/01/23 13:34:14;;;;;;;;;;;;;;;;;;5060195;28;19916;-83
2023/01/23 13:36:40;;;;;;;;;;;;;;;;;;5059432;28;19904;-83
2023/01/23 13:39:06;;;;;;;;;;;;;;;;;;5059870;28;20328;-83
2023/01/23 13:41:32;;;;;;;;;;;;;;;;;;5041498;28;19947;-83
2023/01/23 13:43:58;;;;;;;;;;;;;;;;;;5040282;28;20277;-83
2023/01/23 13:46:24;;;;;;;;;;;;;;;;;;5056816;28;19905;-83
2023/01/23 13:51:36;;;;;;;;;;;;;;;;;;5057719;28;19920;-83
2023/01/23 14:10:17;;;;;;;;;;;;;;;;;;5058941;28;19915;-82
2023/01/23 14:12:43;;;;;;;;;;;;;;;;;;5061422;28;19931;-83
2023/01/23 14:17:56;;;;;;;;;;;;;;;;;;5060595;28;19911;-82
2023/01/23 14:20:22;;;;;;;;;;;;;;;;;;5062240;28;19915;-82
2023/01/23 14:22:48;;;;;;;;;;;;;;;;;;5057923;28;19944;-82
2023/01/23 14:25:14;;;;;;;;;;;;;;;;;;5058453;28;19905;-82
2023/01/23 14:27:39;;;;;;;;;;;;;;;;;;5061448;28;19913;-82
2023/01/23 14:30:05;;;;;;;;;;;;;;;;;;5071821;28;19919;-83
2023/01/23 14:32:31;;;;;;;;;;;;;;;;;;5053357;28;20459;-82
2023/01/23 14:34:57;;;;;;;;;;;;;;;;;;5056090;28;19905;-82
2023/01/23 14:37:23;;;;;;;;;;;;;;;;;;5051583;28;19928;-82
2023/01/23 14:39:50;;;;;;;;;;;;;;;;;;5051800;28;19905;-82
2023/01/23 14:42:16;;;;;;;;;;;;;;;;;;5049588;28;19909;-82
2023/01/23 14:44:41;;;;;;;;;;;;;;;;;;5047456;28;19915;-82
2023/01/23 14:47:07;;;;;;;;;;;;;;;;;;5051138;28;19904;-83
2023/01/23 14:49:33;;;;;;;;;;;;;;;;;;5050527;28;20324;-83
2023/01/23 14:51:59;;;;;;;;;;;;;;;;;;5047341;28;19912;-83
2023/01/23 14:54:25;;;;;;;;;;;;;;;;;;5060968;28;19995;-83
2023/01/23 14:56:51;;;;;;;;;;;;;;;;;;5057670;28;19905;-82
2023/01/23 14:59:17;;;;;;;;;;;;;;;;;;5056597;28;20362;-82
2023/01/23 15:01:43;;;;;;;;;;;;;;;;;;5058400;28;19908;-83
2023/01/23 15:04:08;;;;;;;;;;;;;;;;;;5057994;28;20370;-83
2023/01/23 15:06:34;;;;;;;;;;;;;;;;;;5058100;28;19911;-82
2023/01/23 15:09:00;;;;;;;;;;;;;;;;;;5057660;28;19966;-82
2023/01/23 15:11:26;;;;;;;;;;;;;;;;;;5058132;28;20313;-82
2023/01/23 15:13:54;;;;;;;;;;;;;;;;;;5056367;28;19913;-82
2023/01/23 15:16:20;;;;;;;;;;;;;;;;;;5058229;28;19908;-83
2023/01/23 15:18:45;;;;;;;;;;;;;;;;;;5057462;28;20258;-83
2023/01/23 15:21:11;;;;;;;;;;;;;;;;;;5058242;28;19912;-83
2023/01/23 15:23:37;;;;;;;;;;;;;;;;;;5057519;28;19912;-82
2023/01/23 15:26:03;;;;;;;;;;;;;;;;;;5057445;28;19905;-82
2023/01/23 15:28:29;;;;;;;;;;;;;;;;;;5039990;28;20003;-83
2023/01/23 15:30:55;;;;;;;;;;;;;;;;;;5050043;28;19916;-83
2023/01/23 15:33:21;;;;;;;;;;;;;;;;;;5050732;28;19909;-83
2023/01/23 15:35:47;;;;;;;;;;;;;;;;;;5050437;28;19991;-83
2023/01/23 15:38:12;;;;;;;;;;;;;;;;;;5051080;28;19909;-82
2023/01/23 15:40:38;;;;;;;;;;;;;;;;;;5050079;28;19908;-82
2023/01/23 15:43:07;;;;;;;;;;;;;;;;;;5061199;28;19909;-83
2023/01/23 15:45:33;;;;;;;;;;;;;;;;;;5059733;28;19935;-82
2023/01/23 15:47:59;;;;;;;;;;;;;;;;;;5059916;28;19905;-82
2023/01/23 15:50:24;;;;;;;;;;;;;;;;;;5060281;28;19904;-82
2023/01/23 15:52:53;;;;;;;;;;;;;;;;;;5059594;28;19912;-82
2023/01/23 15:55:19;;;;;;;;;;;;;;;;;;5060439;28;20001;-82
2023/01/23 15:57:45;;;;;;;;;;;;;;;;;;5061226;28;19968;-82
2023/01/23 16:00:11;;;;;;;;;;;;;;;;;;5059869;28;19911;-82
2023/01/23 16:02:37;;;;;;;;;;;;;;;;;;5060331;28;19911;-82
2023/01/23 16:05:03;;;;;;;;;;;;;;;;;;5062007;28;19916;-82
2023/01/23 16:07:30;;;;;;;;;;;;;;;;;;5064830;28;19905;-82
2023/01/23 16:09:56;;;;;;;;;;;;;;;;;;5062254;28;20066;-82
2023/01/23 16:12:22;;;;;;;;;;;;;;;;;;5063553;28;19909;-82
2023/01/23 16:14:48;;;;;;;;;;;;;;;;;;5062581;28;20415;-82
2023/01/23 16:17:14;;;;;;;;;;;;;;;;;;5062991;28;19912;-82
2023/01/23 16:19:40;;;;;;;;;;;;;;;;;;5062188;28;19927;-83
2023/01/23 16:22:06;;;;;;;;;;;;;;;;;;5062039;28;19905;-82
2023/01/23 16:24:31;;;;;;;;;;;;;;;;;;5063932;28;20281;-83
2023/01/23 16:27:00;;;;;;;;;;;;;;;;;;5064305;28;19911;-84
2023/01/23 16:29:26;;;;;;;;;;;;;;;;;;5059896;28;19913;-83
2023/01/23 16:31:52;;;;;;;;;;;;;;;;;;5068911;28;19920;-83
2023/01/23 16:34:18;;;;;;;;;;;;;;;;;;5072021;28;19911;-83
2023/01/23 16:36:44;;;;;;;;;;;;;;;;;;5060157;28;19905;-83
2023/01/23 16:39:10;;;;;;;;;;;;;;;;;;5062167;28;19955;-83
2023/01/23 16:41:36;;;;;;;;;;;;;;;;;;5059890;28;20285;-83
2023/01/23 16:44:02;;;;;;;;;;;;;;;;;;5041772;28;20003;-83
2023/01/23 16:46:29;;;;;;;;;;;;;;;;;;5058951;28;19911;-83
2023/01/23 16:49:02;;;;;;;;;;;;;;;;;;5058663;28;19919;-83
2023/01/23 16:51:28;;;;;;;;;;;;;;;;;;5040833;28;19904;-83
2023/01/23 16:53:53;;;;;;;;;;;;;;;;;;5058978;28;19912;-83
2023/01/23 16:56:19;;;;;;;;;;;;;;;;;;5057491;28;19908;-83
2023/01/23 16:58:45;;;;;;;;;;;;;;;;;;5064565;28;20007;-83
2023/01/23 17:01:11;;;;;;;;;;;;;;;;;;5059974;28;19911;-83
2023/01/23 17:03:39;;;;;;;;;;;;;;;;;;5071958;28;19904;-83
2023/01/23 17:06:05;;;;;;;;;;;;;;;;;;5057505;28;19911;-83
2023/01/23 17:08:31;;;;;;;;;;;;;;;;;;5057823;28;19912;-83
2023/01/23 17:10:57;;;;;;;;;;;;;;;;;;5078063;28;20376;-83
2023/01/23 17:13:23;;;;;;;;;;;;;;;;;;5078227;28;19908;-83
2023/01/23 17:15:49;;;;;;;;;;;;;;;;;;5077921;28;19924;-82
2023/01/23 17:18:15;;;;;;;;;;;;;;;;;;5070025;28;20346;-83
2023/01/23 17:23:10;;;;;;;;;;;;;;;;;;5064905;28;19928;-82
2023/01/23 17:25:35;;;;;;;;;;;;;;;;;;5049562;28;19927;-82
2023/01/23 17:28:03;;;;;;;;;;;;;;;;;;5045034;28;19904;-83
2023/01/23 17:30:29;;;;;;;;;;;;;;;;;;5077021;28;19943;-82
2023/01/23 17:35:26;;;;;;;;;;;;;;;;;;5082865;28;19904;-82
2023/01/23 17:37:52;;;;;;;;;;;;;;;;;;5082286;28;19927;-82
2023/01/23 17:40:18;;;;;;;;;;;;;;;;;;5082176;28;20269;-82
2023/01/23 17:42:44;;;;;;;;;;;;;;;;;;5082811;28;19911;-82
2023/01/23 17:45:09;;;;;;;;;;;;;;;;;;5081404;28;19927;-83
2023/01/23 17:47:35;;;;;;;;;;;;;;;;;;5080341;28;19904;-83
2023/01/23 17:50:02;;;;;;;;;;;;;;;;;;5078200;28;19913;-82
2023/01/23 17:52:29;;;;;;;;;;;;;;;;;;5059782;28;19912;-83